sensor_id;sensor_type;location;lat;lon;timestamp;P1;durP1;ratioP1;P2;durP2;ratioP2
7545;SDS011;3814;51.454;12.616;2022-12-18T00:01:56;51.58;;;13.48;;
7545;SDS011;3814;51.454;12.616;2022-12-18T00:04:23;59.65;;;14.52;;
7545;SDS011;3814;51.454;12.616;2022-12-18T00:06:49;58.83;;;14.98;;
7545;SDS011;3814;51.454;12.616;2022-12-18T00:09:15;54.78;;;14.07;;
7545;SDS011;3814;51.454;12.616;2022-12-18T00:11:40;53.05;;;13.35;;
7545;SDS011;3814;51.454;12.616;2022-12-18T00:14:06;51.92;;;14.57;;
7545;SDS011;3814;51.454;12.616;2022-12-18T00:16:31;50.50;;;13.50;;
7545;SDS011;3814;51.454;12.616;2022-12-18T00:18:58;53.03;;;14.05;;
7545;SDS011;3814;51.454;12.616;2022-12-18T00:21:24;60.10;;;14.25;;
7545;SDS011;3814;51.454;12.616;2022-12-18T00:23:50;66.05;;;14.73;;
7545;SDS011;3814;51.454;12.616;2022-12-18T00:26:17;55.85;;;13.88;;
7545;SDS011;3814;51.454;12.616;2022-12-18T00:28:44;57.40;;;14.73;;
7545;SDS011;3814;51.454;12.616;2022-12-18T00:31:11;47.00;;;14.00;;
7545;SDS011;3814;51.454;12.616;2022-12-18T00:33:40;56.53;;;13.43;;
7545;SDS011;3814;51.454;12.616;2022-12-18T00:36:07;47.60;;;11.90;;
7545;SDS011;3814;51.454;12.616;2022-12-18T00:38:37;55.47;;;13.10;;
7545;SDS011;3814;51.454;12.616;2022-12-18T00:41:03;51.20;;;13.32;;
7545;SDS011;3814;51.454;12.616;2022-12-18T00:43:29;47.42;;;12.43;;
7545;SDS011;3814;51.454;12.616;2022-12-18T00:45:54;52.47;;;13.40;;
7545;SDS011;3814;51.454;12.616;2022-12-18T00:48:20;41.72;;;12.48;;
7545;SDS011;3814;51.454;12.616;2022-12-18T00:50:47;50.67;;;13.35;;
7545;SDS011;3814;51.454;12.616;2022-12-18T00:53:12;42.90;;;11.20;;
7545;SDS011;3814;51.454;12.616;2022-12-18T00:55:41;43.83;;;12.40;;
7545;SDS011;3814;51.454;12.616;2022-12-18T00:58:07;47.30;;;12.55;;
7545;SDS011;3814;51.454;12.616;2022-12-18T01:00:33;50.30;;;12.75;;
7545;SDS011;3814;51.454;12.616;2022-12-18T01:02:59;36.92;;;10.90;;
7545;SDS011;3814;51.454;12.616;2022-12-18T01:05:24;41.03;;;11.88;;
7545;SDS011;3814;51.454;12.616;2022-12-18T01:07:50;49.25;;;11.85;;
7545;SDS011;3814;51.454;12.616;2022-12-18T01:10:15;46.58;;;11.90;;
7545;SDS011;3814;51.454;12.616;2022-12-18T01:12:40;46.53;;;12.50;;
7545;SDS011;3814;51.454;12.616;2022-12-18T01:15:12;45.08;;;12.15;;
7545;SDS011;3814;51.454;12.616;2022-12-18T01:17:38;41.92;;;11.65;;
7545;SDS011;3814;51.454;12.616;2022-12-18T01:20:04;38.45;;;11.68;;
7545;SDS011;3814;51.454;12.616;2022-12-18T01:22:30;51.38;;;12.05;;
7545;SDS011;3814;51.454;12.616;2022-12-18T01:24:55;46.25;;;12.32;;
7545;SDS011;3814;51.454;12.616;2022-12-18T01:27:21;39.53;;;11.23;;
7545;SDS011;3814;51.454;12.616;2022-12-18T01:29:47;43.03;;;11.48;;
7545;SDS011;3814;51.454;12.616;2022-12-18T01:32:12;42.83;;;12.30;;
7545;SDS011;3814;51.454;12.616;2022-12-18T01:34:37;43.05;;;11.57;;
7545;SDS011;3814;51.454;12.616;2022-12-18T01:37:03;43.92;;;11.05;;
7545;SDS011;3814;51.454;12.616;2022-12-18T01:39:29;39.20;;;11.85;;
7545;SDS011;3814;51.454;12.616;2022-12-18T01:41:56;40.80;;;10.38;;
7545;SDS011;3814;51.454;12.616;2022-12-18T01:52:38;49.17;;;11.60;;
7545;SDS011;3814;51.454;12.616;2022-12-18T01:55:05;43.38;;;11.00;;
7545;SDS011;3814;51.454;12.616;2022-12-18T01:57:32;41.58;;;12.57;;
7545;SDS011;3814;51.454;12.616;2022-12-18T01:59:59;38.83;;;11.82;;
7545;SDS011;3814;51.454;12.616;2022-12-18T02:02:26;41.92;;;10.30;;
7545;SDS011;3814;51.454;12.616;2022-12-18T02:04:53;40.85;;;11.90;;
7545;SDS011;3814;51.454;12.616;2022-12-18T02:07:29;39.72;;;10.98;;
7545;SDS011;3814;51.454;12.616;2022-12-18T02:10:20;39.40;;;11.40;;
7545;SDS011;3814;51.454;12.616;2022-12-18T02:12:56;39.92;;;10.63;;
7545;SDS011;3814;51.454;12.616;2022-12-18T02:15:27;41.83;;;11.93;;
7545;SDS011;3814;51.454;12.616;2022-12-18T02:18:07;40.50;;;10.25;;
7545;SDS011;3814;51.454;12.616;2022-12-18T02:20:46;42.35;;;11.18;;
7545;SDS011;3814;51.454;12.616;2022-12-18T02:28:45;34.38;;;10.45;;
7545;SDS011;3814;51.454;12.616;2022-12-18T02:31:19;31.52;;;8.98;;
7545;SDS011;3814;51.454;12.616;2022-12-18T02:33:47;40.10;;;11.35;;
7545;SDS011;3814;51.454;12.616;2022-12-18T02:36:14;34.80;;;11.05;;
7545;SDS011;3814;51.454;12.616;2022-12-18T02:38:41;40.00;;;11.43;;
7545;SDS011;3814;51.454;12.616;2022-12-18T02:41:07;37.50;;;11.00;;
7545;SDS011;3814;51.454;12.616;2022-12-18T02:43:32;31.23;;;9.20;;
7545;SDS011;3814;51.454;12.616;2022-12-18T02:45:58;34.85;;;10.70;;
7545;SDS011;3814;51.454;12.616;2022-12-18T02:48:26;37.80;;;11.45;;
7545;SDS011;3814;51.454;12.616;2022-12-18T02:51:00;37.05;;;10.70;;
7545;SDS011;3814;51.454;12.616;2022-12-18T02:53:32;39.80;;;11.07;;
7545;SDS011;3814;51.454;12.616;2022-12-18T02:56:09;38.20;;;9.82;;
7545;SDS011;3814;51.454;12.616;2022-12-18T03:01:21;43.28;;;10.68;;
7545;SDS011;3814;51.454;12.616;2022-12-18T03:03:55;35.25;;;10.98;;
7545;SDS011;3814;51.454;12.616;2022-12-18T03:06:30;38.40;;;11.10;;
7545;SDS011;3814;51.454;12.616;2022-12-18T03:08:58;38.83;;;11.88;;
7545;SDS011;3814;51.454;12.616;2022-12-18T03:11:27;35.47;;;9.93;;
7545;SDS011;3814;51.454;12.616;2022-12-18T03:14:15;44.13;;;13.30;;
7545;SDS011;3814;51.454;12.616;2022-12-18T03:16:42;33.85;;;10.85;;
7545;SDS011;3814;51.454;12.616;2022-12-18T03:19:10;37.15;;;10.23;;
7545;SDS011;3814;51.454;12.616;2022-12-18T03:21:40;33.97;;;10.60;;
7545;SDS011;3814;51.454;12.616;2022-12-18T03:24:12;40.05;;;11.02;;
7545;SDS011;3814;51.454;12.616;2022-12-18T03:26:40;31.52;;;9.90;;
7545;SDS011;3814;51.454;12.616;2022-12-18T03:29:08;43.17;;;11.73;;
7545;SDS011;3814;51.454;12.616;2022-12-18T03:31:37;37.17;;;11.43;;
7545;SDS011;3814;51.454;12.616;2022-12-18T03:34:05;38.92;;;11.18;;
7545;SDS011;3814;51.454;12.616;2022-12-18T03:36:34;39.72;;;11.60;;
7545;SDS011;3814;51.454;12.616;2022-12-18T03:39:00;34.20;;;11.20;;
7545;SDS011;3814;51.454;12.616;2022-12-18T03:41:28;42.80;;;12.02;;
7545;SDS011;3814;51.454;12.616;2022-12-18T03:44:05;45.47;;;11.70;;
7545;SDS011;3814;51.454;12.616;2022-12-18T03:46:40;33.42;;;10.52;;
7545;SDS011;3814;51.454;12.616;2022-12-18T03:49:11;37.55;;;11.40;;
7545;SDS011;3814;51.454;12.616;2022-12-18T03:51:50;40.22;;;10.80;;
7545;SDS011;3814;51.454;12.616;2022-12-18T03:54:18;41.70;;;11.70;;
7545;SDS011;3814;51.454;12.616;2022-12-18T03:56:48;40.55;;;11.30;;
7545;SDS011;3814;51.454;12.616;2022-12-18T03:59:16;42.30;;;12.00;;
7545;SDS011;3814;51.454;12.616;2022-12-18T04:01:42;40.47;;;12.30;;
7545;SDS011;3814;51.454;12.616;2022-12-18T04:04:11;39.67;;;10.85;;
7545;SDS011;3814;51.454;12.616;2022-12-18T04:06:37;36.33;;;11.38;;
7545;SDS011;3814;51.454;12.616;2022-12-18T04:09:03;33.95;;;10.20;;
7545;SDS011;3814;51.454;12.616;2022-12-18T04:11:29;45.95;;;11.45;;
7545;SDS011;3814;51.454;12.616;2022-12-18T04:13:55;38.55;;;10.93;;
7545;SDS011;3814;51.454;12.616;2022-12-18T04:16:22;37.42;;;11.73;;
7545;SDS011;3814;51.454;12.616;2022-12-18T04:18:48;34.75;;;10.95;;
7545;SDS011;3814;51.454;12.616;2022-12-18T04:21:13;44.28;;;12.30;;
7545;SDS011;3814;51.454;12.616;2022-12-18T04:23:39;39.72;;;12.13;;
7545;SDS011;3814;51.454;12.616;2022-12-18T04:26:04;35.10;;;10.57;;
7545;SDS011;3814;51.454;12.616;2022-12-18T04:28:29;37.28;;;12.23;;
7545;SDS011;3814;51.454;12.616;2022-12-18T04:30:55;37.20;;;10.05;;
7545;SDS011;3814;51.454;12.616;2022-12-18T04:33:20;35.85;;;10.70;;
7545;SDS011;3814;51.454;12.616;2022-12-18T04:35:45;43.72;;;11.23;;
7545;SDS011;3814;51.454;12.616;2022-12-18T04:38:10;44.08;;;11.93;;
7545;SDS011;3814;51.454;12.616;2022-12-18T04:40:36;35.92;;;11.63;;
7545;SDS011;3814;51.454;12.616;2022-12-18T04:43:02;37.50;;;11.02;;
7545;SDS011;3814;51.454;12.616;2022-12-18T04:45:27;40.65;;;11.52;;
7545;SDS011;3814;51.454;12.616;2022-12-18T04:47:53;36.22;;;12.13;;
7545;SDS011;3814;51.454;12.616;2022-12-18T04:50:18;31.65;;;9.95;;
7545;SDS011;3814;51.454;12.616;2022-12-18T04:52:43;43.25;;;12.43;;
7545;SDS011;3814;51.454;12.616;2022-12-18T04:55:09;43.65;;;11.57;;
7545;SDS011;3814;51.454;12.616;2022-12-18T04:57:34;38.50;;;12.13;;
7545;SDS011;3814;51.454;12.616;2022-12-18T05:00:00;36.38;;;12.02;;
7545;SDS011;3814;51.454;12.616;2022-12-18T05:02:25;33.60;;;10.98;;
7545;SDS011;3814;51.454;12.616;2022-12-18T05:04:51;38.78;;;11.75;;
7545;SDS011;3814;51.454;12.616;2022-12-18T05:07:16;35.75;;;11.10;;
7545;SDS011;3814;51.454;12.616;2022-12-18T05:09:41;37.70;;;10.82;;
7545;SDS011;3814;51.454;12.616;2022-12-18T05:12:07;39.17;;;11.23;;
7545;SDS011;3814;51.454;12.616;2022-12-18T05:14:32;39.83;;;12.55;;
7545;SDS011;3814;51.454;12.616;2022-12-18T05:16:57;40.35;;;12.60;;
7545;SDS011;3814;51.454;12.616;2022-12-18T05:19:22;29.83;;;10.50;;
7545;SDS011;3814;51.454;12.616;2022-12-18T05:21:48;36.10;;;11.55;;
7545;SDS011;3814;51.454;12.616;2022-12-18T05:24:13;38.63;;;11.48;;
7545;SDS011;3814;51.454;12.616;2022-12-18T05:26:39;34.95;;;9.38;;
7545;SDS011;3814;51.454;12.616;2022-12-18T05:29:04;33.28;;;10.25;;
7545;SDS011;3814;51.454;12.616;2022-12-18T05:31:29;40.92;;;11.40;;
7545;SDS011;3814;51.454;12.616;2022-12-18T05:33:55;34.50;;;10.00;;
7545;SDS011;3814;51.454;12.616;2022-12-18T05:36:20;34.17;;;11.45;;
7545;SDS011;3814;51.454;12.616;2022-12-18T05:38:45;37.58;;;11.48;;
7545;SDS011;3814;51.454;12.616;2022-12-18T05:41:11;38.28;;;11.65;;
7545;SDS011;3814;51.454;12.616;2022-12-18T05:43:37;38.00;;;11.70;;
7545;SDS011;3814;51.454;12.616;2022-12-18T05:46:07;30.27;;;9.02;;
7545;SDS011;3814;51.454;12.616;2022-12-18T05:48:35;36.05;;;10.07;;
7545;SDS011;3814;51.454;12.616;2022-12-18T05:51:07;27.08;;;9.68;;
7545;SDS011;3814;51.454;12.616;2022-12-18T05:53:35;31.42;;;9.77;;
7545;SDS011;3814;51.454;12.616;2022-12-18T05:56:02;26.77;;;9.25;;
7545;SDS011;3814;51.454;12.616;2022-12-18T05:58:31;30.70;;;9.20;;
7545;SDS011;3814;51.454;12.616;2022-12-18T06:00:57;37.03;;;10.27;;
7545;SDS011;3814;51.454;12.616;2022-12-18T06:03:23;31.52;;;10.48;;
7545;SDS011;3814;51.454;12.616;2022-12-18T06:05:49;35.30;;;11.73;;
7545;SDS011;3814;51.454;12.616;2022-12-18T06:08:14;26.90;;;9.25;;
7545;SDS011;3814;51.454;12.616;2022-12-18T06:10:40;35.85;;;10.30;;
7545;SDS011;3814;51.454;12.616;2022-12-18T06:13:06;37.05;;;10.85;;
7545;SDS011;3814;51.454;12.616;2022-12-18T06:15:31;38.42;;;10.82;;
7545;SDS011;3814;51.454;12.616;2022-12-18T06:17:57;38.45;;;11.35;;
7545;SDS011;3814;51.454;12.616;2022-12-18T06:20:23;27.48;;;9.85;;
7545;SDS011;3814;51.454;12.616;2022-12-18T06:22:48;26.58;;;9.38;;
7545;SDS011;3814;51.454;12.616;2022-12-18T06:25:14;33.95;;;10.57;;
7545;SDS011;3814;51.454;12.616;2022-12-18T06:27:39;29.27;;;9.40;;
7545;SDS011;3814;51.454;12.616;2022-12-18T06:30:04;35.95;;;9.65;;
7545;SDS011;3814;51.454;12.616;2022-12-18T06:32:30;33.08;;;9.60;;
7545;SDS011;3814;51.454;12.616;2022-12-18T06:34:56;29.60;;;9.10;;
7545;SDS011;3814;51.454;12.616;2022-12-18T06:37:21;24.75;;;9.52;;
7545;SDS011;3814;51.454;12.616;2022-12-18T06:39:50;27.05;;;9.23;;
7545;SDS011;3814;51.454;12.616;2022-12-18T06:42:16;37.15;;;10.77;;
7545;SDS011;3814;51.454;12.616;2022-12-18T06:44:41;29.10;;;9.48;;
7545;SDS011;3814;51.454;12.616;2022-12-18T06:47:06;35.97;;;9.85;;
7545;SDS011;3814;51.454;12.616;2022-12-18T06:49:32;33.50;;;10.27;;
7545;SDS011;3814;51.454;12.616;2022-12-18T06:51:57;35.58;;;10.75;;
7545;SDS011;3814;51.454;12.616;2022-12-18T06:54:22;29.73;;;9.27;;
7545;SDS011;3814;51.454;12.616;2022-12-18T06:56:48;31.55;;;9.80;;
7545;SDS011;3814;51.454;12.616;2022-12-18T06:59:13;36.47;;;9.32;;
7545;SDS011;3814;51.454;12.616;2022-12-18T07:01:39;40.08;;;10.65;;
7545;SDS011;3814;51.454;12.616;2022-12-18T07:04:05;31.65;;;10.10;;
7545;SDS011;3814;51.454;12.616;2022-12-18T07:06:30;30.95;;;9.05;;
7545;SDS011;3814;51.454;12.616;2022-12-18T07:08:55;30.25;;;9.48;;
7545;SDS011;3814;51.454;12.616;2022-12-18T07:11:22;31.20;;;10.60;;
7545;SDS011;3814;51.454;12.616;2022-12-18T07:13:47;33.08;;;10.05;;
7545;SDS011;3814;51.454;12.616;2022-12-18T07:16:14;35.05;;;10.57;;
7545;SDS011;3814;51.454;12.616;2022-12-18T07:18:41;37.20;;;10.73;;
7545;SDS011;3814;51.454;12.616;2022-12-18T07:21:11;35.53;;;9.40;;
7545;SDS011;3814;51.454;12.616;2022-12-18T07:23:37;41.17;;;12.32;;
7545;SDS011;3814;51.454;12.616;2022-12-18T07:26:03;48.50;;;12.75;;
7545;SDS011;3814;51.454;12.616;2022-12-18T07:28:30;42.72;;;13.13;;
7545;SDS011;3814;51.454;12.616;2022-12-18T07:30:55;41.15;;;11.38;;
7545;SDS011;3814;51.454;12.616;2022-12-18T07:33:21;36.22;;;11.02;;
7545;SDS011;3814;51.454;12.616;2022-12-18T07:35:46;42.17;;;11.98;;
7545;SDS011;3814;51.454;12.616;2022-12-18T07:38:11;35.08;;;10.60;;
7545;SDS011;3814;51.454;12.616;2022-12-18T07:40:37;33.45;;;10.45;;
7545;SDS011;3814;51.454;12.616;2022-12-18T07:43:02;27.23;;;9.10;;
7545;SDS011;3814;51.454;12.616;2022-12-18T07:45:27;34.10;;;11.43;;
7545;SDS011;3814;51.454;12.616;2022-12-18T07:47:53;37.20;;;11.23;;
7545;SDS011;3814;51.454;12.616;2022-12-18T07:50:18;31.48;;;10.40;;
7545;SDS011;3814;51.454;12.616;2022-12-18T07:52:43;35.38;;;11.20;;
7545;SDS011;3814;51.454;12.616;2022-12-18T07:55:09;40.53;;;10.80;;
7545;SDS011;3814;51.454;12.616;2022-12-18T07:57:34;32.13;;;10.10;;
7545;SDS011;3814;51.454;12.616;2022-12-18T07:59:59;29.38;;;9.07;;
7545;SDS011;3814;51.454;12.616;2022-12-18T08:02:25;26.95;;;9.45;;
7545;SDS011;3814;51.454;12.616;2022-12-18T08:04:50;26.05;;;9.60;;
7545;SDS011;3814;51.454;12.616;2022-12-18T08:07:16;35.05;;;9.98;;
7545;SDS011;3814;51.454;12.616;2022-12-18T08:09:41;35.15;;;10.88;;
7545;SDS011;3814;51.454;12.616;2022-12-18T08:12:06;28.70;;;10.38;;
7545;SDS011;3814;51.454;12.616;2022-12-18T08:14:32;27.60;;;8.95;;
7545;SDS011;3814;51.454;12.616;2022-12-18T08:16:57;31.30;;;9.48;;
7545;SDS011;3814;51.454;12.616;2022-12-18T08:19:22;33.80;;;10.48;;
7545;SDS011;3814;51.454;12.616;2022-12-18T08:21:48;32.17;;;10.05;;
7545;SDS011;3814;51.454;12.616;2022-12-18T08:24:13;30.88;;;9.70;;
7545;SDS011;3814;51.454;12.616;2022-12-18T08:26:38;29.50;;;9.70;;
7545;SDS011;3814;51.454;12.616;2022-12-18T08:29:04;30.85;;;9.93;;
7545;SDS011;3814;51.454;12.616;2022-12-18T08:31:29;33.67;;;10.75;;
7545;SDS011;3814;51.454;12.616;2022-12-18T08:33:56;30.77;;;10.52;;
7545;SDS011;3814;51.454;12.616;2022-12-18T08:36:21;42.40;;;12.98;;
7545;SDS011;3814;51.454;12.616;2022-12-18T08:38:47;66.78;;;19.17;;
7545;SDS011;3814;51.454;12.616;2022-12-18T08:41:13;82.25;;;21.38;;
7545;SDS011;3814;51.454;12.616;2022-12-18T08:43:39;83.93;;;20.90;;
7545;SDS011;3814;51.454;12.616;2022-12-18T08:46:24;77.68;;;19.75;;
7545;SDS011;3814;51.454;12.616;2022-12-18T08:48:51;49.00;;;13.65;;
7545;SDS011;3814;51.454;12.616;2022-12-18T08:51:17;30.98;;;9.73;;
7545;SDS011;3814;51.454;12.616;2022-12-18T08:53:43;25.15;;;9.20;;
7545;SDS011;3814;51.454;12.616;2022-12-18T08:56:09;26.80;;;8.38;;
7545;SDS011;3814;51.454;12.616;2022-12-18T08:58:35;29.75;;;9.73;;
7545;SDS011;3814;51.454;12.616;2022-12-18T09:01:01;30.52;;;9.68;;
7545;SDS011;3814;51.454;12.616;2022-12-18T09:03:27;26.95;;;9.05;;
7545;SDS011;3814;51.454;12.616;2022-12-18T09:05:53;26.50;;;8.57;;
7545;SDS011;3814;51.454;12.616;2022-12-18T09:08:18;30.40;;;9.18;;
7545;SDS011;3814;51.454;12.616;2022-12-18T09:10:44;26.17;;;8.90;;
7545;SDS011;3814;51.454;12.616;2022-12-18T09:13:11;28.35;;;9.02;;
7545;SDS011;3814;51.454;12.616;2022-12-18T09:15:43;29.02;;;9.63;;
7545;SDS011;3814;51.454;12.616;2022-12-18T09:18:10;29.17;;;9.52;;
7545;SDS011;3814;51.454;12.616;2022-12-18T09:20:36;30.77;;;9.05;;
7545;SDS011;3814;51.454;12.616;2022-12-18T09:23:02;26.52;;;9.40;;
7545;SDS011;3814;51.454;12.616;2022-12-18T09:25:28;27.05;;;9.15;;
7545;SDS011;3814;51.454;12.616;2022-12-18T09:27:57;25.15;;;8.93;;
7545;SDS011;3814;51.454;12.616;2022-12-18T09:30:23;29.33;;;10.15;;
7545;SDS011;3814;51.454;12.616;2022-12-18T09:32:48;26.95;;;9.30;;
7545;SDS011;3814;51.454;12.616;2022-12-18T09:35:14;25.92;;;9.13;;
7545;SDS011;3814;51.454;12.616;2022-12-18T09:37:39;31.77;;;10.82;;
7545;SDS011;3814;51.454;12.616;2022-12-18T09:40:12;28.75;;;9.95;;
7545;SDS011;3814;51.454;12.616;2022-12-18T09:42:39;29.38;;;9.40;;
7545;SDS011;3814;51.454;12.616;2022-12-18T09:45:04;27.38;;;9.05;;
7545;SDS011;3814;51.454;12.616;2022-12-18T09:47:30;26.33;;;9.38;;
7545;SDS011;3814;51.454;12.616;2022-12-18T09:50:01;23.35;;;8.43;;
7545;SDS011;3814;51.454;12.616;2022-12-18T09:52:45;24.83;;;9.25;;
7545;SDS011;3814;51.454;12.616;2022-12-18T09:57:47;23.75;;;9.13;;
7545;SDS011;3814;51.454;12.616;2022-12-18T10:00:17;25.67;;;8.65;;
7545;SDS011;3814;51.454;12.616;2022-12-18T10:02:44;26.90;;;9.52;;
7545;SDS011;3814;51.454;12.616;2022-12-18T10:05:15;25.15;;;9.45;;
7545;SDS011;3814;51.454;12.616;2022-12-18T10:16:13;24.20;;;8.98;;
7545;SDS011;3814;51.454;12.616;2022-12-18T10:21:32;25.10;;;9.10;;
7545;SDS011;3814;51.454;12.616;2022-12-18T10:24:17;23.58;;;8.90;;
7545;SDS011;3814;51.454;12.616;2022-12-18T10:27:11;20.50;;;7.93;;
7545;SDS011;3814;51.454;12.616;2022-12-18T10:29:39;19.85;;;7.97;;
7545;SDS011;3814;51.454;12.616;2022-12-18T10:32:06;28.25;;;8.85;;
7545;SDS011;3814;51.454;12.616;2022-12-18T10:34:32;28.00;;;9.75;;
7545;SDS011;3814;51.454;12.616;2022-12-18T10:36:57;22.05;;;8.27;;
7545;SDS011;3814;51.454;12.616;2022-12-18T10:39:25;25.60;;;8.75;;
7545;SDS011;3814;51.454;12.616;2022-12-18T10:41:51;21.70;;;8.27;;
7545;SDS011;3814;51.454;12.616;2022-12-18T10:44:23;22.38;;;7.93;;
7545;SDS011;3814;51.454;12.616;2022-12-18T10:46:55;23.77;;;7.97;;
7545;SDS011;3814;51.454;12.616;2022-12-18T10:49:31;25.05;;;8.40;;
7545;SDS011;3814;51.454;12.616;2022-12-18T10:52:11;26.27;;;8.45;;
7545;SDS011;3814;51.454;12.616;2022-12-18T10:54:45;22.45;;;8.30;;
7545;SDS011;3814;51.454;12.616;2022-12-18T11:02:49;26.83;;;9.98;;
7545;SDS011;3814;51.454;12.616;2022-12-18T11:07:55;26.75;;;8.85;;
7545;SDS011;3814;51.454;12.616;2022-12-18T11:10:28;27.48;;;8.98;;
7545;SDS011;3814;51.454;12.616;2022-12-18T11:13:07;24.20;;;8.88;;
7545;SDS011;3814;51.454;12.616;2022-12-18T11:15:43;27.73;;;9.43;;
7545;SDS011;3814;51.454;12.616;2022-12-18T11:18:23;24.83;;;9.30;;
7545;SDS011;3814;51.454;12.616;2022-12-18T11:21:13;25.35;;;8.82;;
7545;SDS011;3814;51.454;12.616;2022-12-18T11:23:45;23.13;;;7.53;;
7545;SDS011;3814;51.454;12.616;2022-12-18T11:26:12;22.85;;;8.05;;
7545;SDS011;3814;51.454;12.616;2022-12-18T11:33:41;24.03;;;8.37;;
7545;SDS011;3814;51.454;12.616;2022-12-18T11:36:08;26.23;;;9.23;;
7545;SDS011;3814;51.454;12.616;2022-12-18T11:38:35;22.90;;;8.35;;
7545;SDS011;3814;51.454;12.616;2022-12-18T11:41:04;27.27;;;9.05;;
7545;SDS011;3814;51.454;12.616;2022-12-18T11:43:52;23.38;;;8.63;;
7545;SDS011;3814;51.454;12.616;2022-12-18T11:49:07;28.20;;;8.90;;
7545;SDS011;3814;51.454;12.616;2022-12-18T11:51:41;24.90;;;8.30;;
7545;SDS011;3814;51.454;12.616;2022-12-18T11:54:12;30.75;;;8.77;;
7545;SDS011;3814;51.454;12.616;2022-12-18T11:56:46;25.25;;;8.35;;
7545;SDS011;3814;51.454;12.616;2022-12-18T11:59:17;26.85;;;9.00;;
7545;SDS011;3814;51.454;12.616;2022-12-18T12:02:17;31.05;;;8.40;;
7545;SDS011;3814;51.454;12.616;2022-12-18T12:05:00;29.17;;;8.93;;
7545;SDS011;3814;51.454;12.616;2022-12-18T12:07:40;25.80;;;8.80;;
7545;SDS011;3814;51.454;12.616;2022-12-18T12:10:14;28.38;;;9.00;;
7545;SDS011;3814;51.454;12.616;2022-12-18T12:17:57;28.13;;;8.80;;
7545;SDS011;3814;51.454;12.616;2022-12-18T12:20:39;27.50;;;8.63;;
7545;SDS011;3814;51.454;12.616;2022-12-18T12:23:22;35.85;;;10.73;;
7545;SDS011;3814;51.454;12.616;2022-12-18T12:25:52;34.63;;;9.85;;
7545;SDS011;3814;51.454;12.616;2022-12-18T12:37:03;25.63;;;8.52;;
7545;SDS011;3814;51.454;12.616;2022-12-18T12:39:40;30.80;;;10.25;;
7545;SDS011;3814;51.454;12.616;2022-12-18T12:42:10;31.40;;;9.25;;
7545;SDS011;3814;51.454;12.616;2022-12-18T12:45:17;25.83;;;8.32;;
7545;SDS011;3814;51.454;12.616;2022-12-18T12:47:46;25.35;;;8.85;;
7545;SDS011;3814;51.454;12.616;2022-12-18T12:50:14;25.02;;;8.55;;
7545;SDS011;3814;51.454;12.616;2022-12-18T12:53:00;28.77;;;9.25;;
7545;SDS011;3814;51.454;12.616;2022-12-18T12:55:26;28.92;;;10.05;;
7545;SDS011;3814;51.454;12.616;2022-12-18T12:58:04;28.77;;;9.55;;
7545;SDS011;3814;51.454;12.616;2022-12-18T13:07:04;37.83;;;10.63;;
7545;SDS011;3814;51.454;12.616;2022-12-18T13:09:35;34.85;;;10.30;;
7545;SDS011;3814;51.454;12.616;2022-12-18T13:12:51;32.28;;;10.07;;
7545;SDS011;3814;51.454;12.616;2022-12-18T13:15:24;33.28;;;11.02;;
7545;SDS011;3814;51.454;12.616;2022-12-18T13:20:35;29.17;;;9.77;;
7545;SDS011;3814;51.454;12.616;2022-12-18T13:23:19;32.35;;;10.65;;
7545;SDS011;3814;51.454;12.616;2022-12-18T13:25:47;32.00;;;10.48;;
7545;SDS011;3814;51.454;12.616;2022-12-18T13:28:14;33.55;;;11.25;;
7545;SDS011;3814;51.454;12.616;2022-12-18T13:30:45;32.45;;;11.90;;
7545;SDS011;3814;51.454;12.616;2022-12-18T13:43:30;32.77;;;11.03;;
7545;SDS011;3814;51.454;12.616;2022-12-18T13:46:02;34.67;;;11.13;;
7545;SDS011;3814;51.454;12.616;2022-12-18T13:48:31;33.38;;;10.27;;
7545;SDS011;3814;51.454;12.616;2022-12-18T13:50:59;31.42;;;10.63;;
7545;SDS011;3814;51.454;12.616;2022-12-18T13:53:30;30.50;;;10.82;;
7545;SDS011;3814;51.454;12.616;2022-12-18T13:55:58;36.38;;;11.73;;
7545;SDS011;3814;51.454;12.616;2022-12-18T13:58:23;30.80;;;11.10;;
7545;SDS011;3814;51.454;12.616;2022-12-18T14:00:49;44.00;;;12.80;;
7545;SDS011;3814;51.454;12.616;2022-12-18T14:03:18;40.47;;;12.70;;
7545;SDS011;3814;51.454;12.616;2022-12-18T14:05:46;37.83;;;11.80;;
7545;SDS011;3814;51.454;12.616;2022-12-18T14:08:18;41.33;;;13.02;;
7545;SDS011;3814;51.454;12.616;2022-12-18T14:10:44;35.40;;;11.07;;
7545;SDS011;3814;51.454;12.616;2022-12-18T14:13:13;35.60;;;11.43;;
7545;SDS011;3814;51.454;12.616;2022-12-18T14:15:42;40.35;;;12.70;;
7545;SDS011;3814;51.454;12.616;2022-12-18T14:21:02;39.13;;;12.38;;
7545;SDS011;3814;51.454;12.616;2022-12-18T14:23:39;38.67;;;13.05;;
7545;SDS011;3814;51.454;12.616;2022-12-18T14:26:22;36.83;;;11.80;;
7545;SDS011;3814;51.454;12.616;2022-12-18T14:28:56;38.80;;;12.40;;
7545;SDS011;3814;51.454;12.616;2022-12-18T14:31:25;42.67;;;13.07;;
7545;SDS011;3814;51.454;12.616;2022-12-18T14:33:52;41.33;;;14.10;;
7545;SDS011;3814;51.454;12.616;2022-12-18T14:36:22;44.08;;;13.82;;
7545;SDS011;3814;51.454;12.616;2022-12-18T14:38:58;45.42;;;14.50;;
7545;SDS011;3814;51.454;12.616;2022-12-18T14:41:24;46.47;;;13.77;;
7545;SDS011;3814;51.454;12.616;2022-12-18T14:43:51;47.20;;;14.98;;
7545;SDS011;3814;51.454;12.616;2022-12-18T14:46:36;45.75;;;14.35;;
7545;SDS011;3814;51.454;12.616;2022-12-18T14:51:54;46.83;;;14.43;;
7545;SDS011;3814;51.454;12.616;2022-12-18T14:54:21;42.90;;;14.82;;
7545;SDS011;3814;51.454;12.616;2022-12-18T14:56:51;48.83;;;14.10;;
7545;SDS011;3814;51.454;12.616;2022-12-18T14:59:22;51.33;;;15.23;;
7545;SDS011;3814;51.454;12.616;2022-12-18T15:09:31;52.35;;;15.38;;
7545;SDS011;3814;51.454;12.616;2022-12-18T15:12:00;52.58;;;15.23;;
7545;SDS011;3814;51.454;12.616;2022-12-18T15:14:38;58.83;;;16.33;;
7545;SDS011;3814;51.454;12.616;2022-12-18T15:17:06;58.33;;;16.15;;
7545;SDS011;3814;51.454;12.616;2022-12-18T15:19:40;52.90;;;15.48;;
7545;SDS011;3814;51.454;12.616;2022-12-18T15:22:40;56.15;;;17.42;;
7545;SDS011;3814;51.454;12.616;2022-12-18T15:24:59;54.20;;;15.52;;
7545;SDS011;3814;51.454;12.616;2022-12-18T15:30:01;52.35;;;15.65;;
7545;SDS011;3814;51.454;12.616;2022-12-18T15:32:28;57.53;;;16.50;;
7545;SDS011;3814;51.454;12.616;2022-12-18T15:35:08;52.45;;;14.32;;
7545;SDS011;3814;51.454;12.616;2022-12-18T15:37:45;53.90;;;16.15;;
7545;SDS011;3814;51.454;12.616;2022-12-18T15:40:12;56.53;;;15.77;;
7545;SDS011;3814;51.454;12.616;2022-12-18T15:42:38;46.05;;;13.60;;
7545;SDS011;3814;51.454;12.616;2022-12-18T15:45:23;50.05;;;13.75;;
7545;SDS011;3814;51.454;12.616;2022-12-18T15:47:51;56.53;;;16.42;;
7545;SDS011;3814;51.454;12.616;2022-12-18T15:50:17;50.55;;;14.05;;
7545;SDS011;3814;51.454;12.616;2022-12-18T15:52:44;53.67;;;16.00;;
7545;SDS011;3814;51.454;12.616;2022-12-18T15:55:15;54.30;;;14.57;;
7545;SDS011;3814;51.454;12.616;2022-12-18T15:58:01;54.53;;;15.65;;
7545;SDS011;3814;51.454;12.616;2022-12-18T16:00:26;48.25;;;15.80;;
7545;SDS011;3814;51.454;12.616;2022-12-18T16:02:52;48.75;;;14.88;;
7545;SDS011;3814;51.454;12.616;2022-12-18T16:05:18;49.20;;;14.57;;
7545;SDS011;3814;51.454;12.616;2022-12-18T16:07:45;50.50;;;16.15;;
7545;SDS011;3814;51.454;12.616;2022-12-18T16:10:13;49.97;;;14.52;;
7545;SDS011;3814;51.454;12.616;2022-12-18T16:12:38;50.47;;;15.38;;
7545;SDS011;3814;51.454;12.616;2022-12-18T16:15:07;52.90;;;15.30;;
7545;SDS011;3814;51.454;12.616;2022-12-18T16:17:33;51.88;;;15.77;;
7545;SDS011;3814;51.454;12.616;2022-12-18T16:19:58;53.90;;;15.73;;
7545;SDS011;3814;51.454;12.616;2022-12-18T16:22:25;48.30;;;14.85;;
7545;SDS011;3814;51.454;12.616;2022-12-18T16:24:53;49.63;;;15.60;;